Time;durP1;ratioP1;P1;durP2;ratioP2;P2;SDS_P1;SDS_P2;PMS_P1;PMS_P2;Temp;Humidity;BMP_temperature;BMP_pressure;BME280_temperature;BME280_humidity;BME280_pressure;Samples;Min_cycle;Max_cycle;Signal;HPM_P1;HPM_P2
2023/08/29 00:01:20;;;;;;;;;;;;;;;17.97;53.33;101190.16;4830818;29;119357;-77
2023/08/29 00:03:47;;;;;;;;;;;;;;;17.93;53.17;101185.94;4846622;29;118184;-76
2023/08/29 00:06:14;;;;;;;;;;;;;;;17.91;53.37;101187.88;4828589;29;124838;-77
2023/08/29 00:08:41;;;;;;;;;;;;;;;17.89;53.29;101189.81;4828651;29;127373;-76
2023/08/29 00:11:08;;;;;;;;;;;;;;;17.87;53.36;101186.38;4830385;29;119771;-77
2023/08/29 00:13:35;;;;;;;;;;;;;;;17.86;53.48;101185.53;4830369;29;118523;-77
2023/08/29 00:16:02;;;;;;;;;;;;;;;17.85;53.30;101177.59;4830146;29;124194;-77
2023/08/29 00:18:29;;;;;;;;;;;;;;;17.84;53.37;101175.88;4831107;29;124143;-77
2023/08/29 00:20:56;;;;;;;;;;;;;;;17.82;53.45;101161.69;4829775;29;120484;-77
2023/08/29 00:23:23;;;;;;;;;;;;;;;17.82;53.27;101159.00;4832926;29;119536;-77
2023/08/29 00:25:50;;;;;;;;;;;;;;;17.80;53.35;101152.91;4830072;29;123941;-77
2023/08/29 00:28:17;;;;;;;;;;;;;;;17.78;53.27;101144.13;4833084;29;124273;-77
2023/08/29 00:30:44;;;;;;;;;;;;;;;17.75;53.27;101147.91;4823794;29;119070;-76
2023/08/29 00:33:11;;;;;;;;;;;;;;;17.72;53.17;101153.44;4830186;29;118469;-77
2023/08/29 00:35:39;;;;;;;;;;;;;;;17.69;53.33;101157.22;4829915;28;123896;-77
2023/08/29 00:38:06;;;;;;;;;;;;;;;17.66;53.35;101149.38;4831939;29;123588;-77
2023/08/29 00:40:34;;;;;;;;;;;;;;;17.65;53.46;101155.72;4824353;29;119636;-77
2023/08/29 00:43:02;;;;;;;;;;;;;;;17.63;53.26;101152.28;4832610;29;118924;-77
2023/08/29 00:45:31;;;;;;;;;;;;;;;17.60;53.21;101152.50;4826418;29;124343;-77
2023/08/29 00:48:00;;;;;;;;;;;;;;;17.56;53.34;101148.31;4825248;29;124310;-77
2023/08/29 00:50:27;;;;;;;;;;;;;;;17.55;53.36;101149.28;4831370;29;120240;-77
2023/08/29 00:52:58;;;;;;;;;;;;;;;17.53;53.43;101151.22;4829248;29;117700;-77
2023/08/29 00:55:26;;;;;;;;;;;;;;;17.47;53.24;101157.84;4845335;29;124067;-77
2023/08/29 00:57:57;;;;;;;;;;;;;;;17.44;53.51;101162.56;4826844;29;123328;-77
2023/08/29 01:00:24;;;;;;;;;;;;;;;17.40;53.39;101156.53;4846466;29;119452;-77
2023/08/29 01:02:51;;;;;;;;;;;;;;;17.39;53.53;101154.00;4830803;29;119126;-77
2023/08/29 01:05:20;;;;;;;;;;;;;;;17.37;53.45;101155.94;4816256;29;123240;-76
2023/08/29 01:07:58;;;;;;;;;;;;;;;17.36;53.43;101148.84;4833701;29;122967;-77
2023/08/29 01:10:31;;;;;;;;;;;;;;;17.34;53.67;101148.94;4829057;29;121104;-76
2023/08/29 01:13:03;;;;;;;;;;;;;;;17.34;53.52;101150.78;4834671;29;119307;-76
2023/08/29 01:15:32;;;;;;;;;;;;;;;17.30;53.69;101140.25;4825016;29;124171;-77
2023/08/29 01:18:03;;;;;;;;;;;;;;;17.30;53.49;101144.78;4832070;29;123058;-77
2023/08/29 01:20:31;;;;;;;;;;;;;;;17.27;53.78;101140.50;4818708;29;120427;-76
2023/08/29 01:23:11;;;;;;;;;;;;;;;17.27;53.64;101140.50;4832573;29;118914;-77
2023/08/29 01:25:41;;;;;;;;;;;;;;;17.25;53.59;101145.09;4826939;29;125902;-76
2023/08/29 01:28:08;;;;;;;;;;;;;;;17.24;53.51;101151.41;4834722;29;124655;-77
2023/08/29 01:30:38;;;;;;;;;;;;;;;17.23;53.71;101155.03;4834056;29;118846;-77
2023/08/29 01:33:05;;;;;;;;;;;;;;;17.22;53.66;101158.69;4831607;29;118920;-77
2023/08/29 01:35:32;;;;;;;;;;;;;;;17.21;53.81;101156.94;4833687;29;124368;-76
2023/08/29 01:37:59;;;;;;;;;;;;;;;17.19;53.64;101164.22;4829673;29;123573;-77
2023/08/29 01:40:26;;;;;;;;;;;;;;;17.19;53.80;101158.88;4837676;29;119769;-77
2023/08/29 01:42:53;;;;;;;;;;;;;;;17.17;53.78;101155.44;4830967;29;119046;-77
2023/08/29 01:45:20;;;;;;;;;;;;;;;17.16;53.77;101153.75;4832149;29;124063;-77
2023/08/29 01:47:47;;;;;;;;;;;;;;;17.15;53.67;101154.69;4835352;29;124459;-77
2023/08/29 01:50:16;;;;;;;;;;;;;;;17.14;53.61;101150.31;4833997;29;119149;-77
2023/08/29 01:52:43;;;;;;;;;;;;;;;17.12;53.67;101157.56;4840508;29;118050;-77
2023/08/29 01:55:11;;;;;;;;;;;;;;;17.10;53.82;101159.50;4850672;29;123071;-77
2023/08/29 01:57:39;;;;;;;;;;;;;;;17.08;53.70;101172.13;4817940;29;124914;-77
2023/08/29 02:00:07;;;;;;;;;;;;;;;17.06;53.70;101168.69;4834780;29;119989;-77
2023/08/29 02:02:40;;;;;;;;;;;;;;;17.03;53.71;101175.13;4829361;29;121115;-77
2023/08/29 02:05:07;;;;;;;;;;;;;;;17.02;53.62;101177.91;4830246;29;124839;-77
2023/08/29 02:07:34;;;;;;;;;;;;;;;17.01;53.67;101186.88;4823963;29;124585;-77
2023/08/29 02:10:01;;;;;;;;;;;;;;;17.00;53.80;101185.16;4841674;29;120293;-77
2023/08/29 02:12:28;;;;;;;;;;;;;;;16.98;53.67;101182.59;4831940;29;118118;-77
2023/08/29 02:14:55;;;;;;;;;;;;;;;16.96;53.73;101181.00;4833396;29;124526;-77
2023/08/29 02:17:22;;;;;;;;;;;;;;;16.93;53.73;101185.59;4833521;29;125666;-77
2023/08/29 02:19:49;;;;;;;;;;;;;;;16.91;53.91;101195.53;4833169;29;118333;-77
2023/08/29 02:22:16;;;;;;;;;;;;;;;16.90;53.71;101191.13;4832790;29;119222;-77
2023/08/29 02:24:43;;;;;;;;;;;;;;;16.89;53.81;101194.75;4833964;29;124955;-77
2023/08/29 02:27:10;;;;;;;;;;;;;;;16.87;53.92;101191.31;4832501;29;126015;-77
2023/08/29 02:29:37;;;;;;;;;;;;;;;16.86;53.74;101199.47;4821843;29;120313;-77
2023/08/29 02:32:06;;;;;;;;;;;;;;;16.84;53.80;101207.59;4834401;29;118030;-77
2023/08/29 02:34:33;;;;;;;;;;;;;;;16.84;54.01;101207.59;4833041;29;122891;-77
2023/08/29 02:37:02;;;;;;;;;;;;;;;16.84;53.91;101207.59;4833383;29;124023;-76
2023/08/29 02:39:30;;;;;;;;;;;;;;;16.84;53.89;101210.28;4825991;29;120423;-77
2023/08/29 02:41:57;;;;;;;;;;;;;;;16.83;53.99;101211.22;4823825;29;118278;-77
2023/08/29 02:44:26;;;;;;;;;;;;;;;16.83;54.06;101216.56;4845402;29;122293;-77
2023/08/29 02:46:53;;;;;;;;;;;;;;;16.81;53.87;101213.09;4823179;29;123466;-77
2023/08/29 02:49:20;;;;;;;;;;;;;;;16.83;54.04;101215.72;4831043;29;120631;-76
2023/08/29 02:51:48;;;;;;;;;;;;;;;16.82;54.14;101220.22;4830361;29;120526;-77
2023/08/29 02:54:15;;;;;;;;;;;;;;;16.83;54.04;101227.28;4829038;29;124600;-77
2023/08/29 02:56:42;;;;;;;;;;;;;;;16.83;54.04;101216.56;4846459;29;123311;-77
2023/08/29 02:59:09;;;;;;;;;;;;;;;16.84;53.96;101223.66;4832523;29;119423;-76
2023/08/29 03:01:36;;;;;;;;;;;;;;;16.84;54.07;101222.78;4828372;29;119525;-77
2023/08/29 03:04:03;;;;;;;;;;;;;;;16.84;54.14;101222.78;4835664;29;123900;-77
2023/08/29 03:06:30;;;;;;;;;;;;;;;16.83;54.17;101232.63;4831160;29;125766;-77
2023/08/29 03:08:57;;;;;;;;;;;;;;;16.83;53.93;101223.75;4831634;29;120272;-77
2023/08/29 03:11:26;;;;;;;;;;;;;;;16.83;53.96;101232.63;4832050;29;117794;-77
2023/08/29 03:13:53;;;;;;;;;;;;;;;16.83;54.10;101229.09;4824908;29;125944;-76
2023/08/29 03:16:21;;;;;;;;;;;;;;;16.83;54.10;101232.63;4831361;28;123808;-77
2023/08/29 03:18:48;;;;;;;;;;;;;;;16.84;54.00;101226.31;4827619;29;118491;-77
2023/08/29 03:21:14;;;;;;;;;;;;;;;16.86;54.06;101220.88;4830906;29;119162;-77
2023/08/29 03:23:41;;;;;;;;;;;;;;;16.84;54.06;101218.31;4813408;29;125281;-77
2023/08/29 03:26:09;;;;;;;;;;;;;;;16.82;54.09;101214.88;4830865;29;123281;-77
2023/08/29 03:28:37;;;;;;;;;;;;;;;16.81;53.96;101202.41;4829976;29;118636;-77
2023/08/29 03:31:11;;;;;;;;;;;;;;;16.80;54.09;101200.72;4847074;28;117873;-77
2023/08/29 03:33:39;;;;;;;;;;;;;;;16.78;54.04;101191.91;4831580;29;124610;-77
2023/08/29 03:36:06;;;;;;;;;;;;;;;16.79;54.24;101198.97;4832499;29;124201;-76
2023/08/29 03:38:37;;;;;;;;;;;;;;;16.79;54.17;101190.94;4819269;29;120551;-77
2023/08/29 03:41:05;;;;;;;;;;;;;;;16.77;54.17;101184.84;4827047;29;119403;-77
2023/08/29 03:43:35;;;;;;;;;;;;;;;16.77;54.19;101184.00;4829372;29;123359;-77
2023/08/29 03:46:03;;;;;;;;;;;;;;;16.76;54.18;101172.41;4825477;29;124853;-77
2023/08/29 03:48:30;;;;;;;;;;;;;;;16.75;54.18;101170.72;4832268;29;121205;-77
2023/08/29 03:50:58;;;;;;;;;;;;;;;16.74;54.21;101163.63;4832220;29;118164;-76
2023/08/29 03:53:25;;;;;;;;;;;;;;;16.72;54.09;101163.72;4830673;29;124211;-77
2023/08/29 03:55:52;;;;;;;;;;;;;;;16.73;54.07;101164.63;4826325;29;123326;-77
2023/08/29 03:58:19;;;;;;;;;;;;;;;16.71;54.27;101162.03;4831739;29;120160;-77
2023/08/29 04:00:46;;;;;;;;;;;;;;;16.72;54.23;101165.56;4822154;29;119325;-77
2023/08/29 04:03:13;;;;;;;;;;;;;;;16.72;54.21;101157.53;4830705;29;123803;-77
2023/08/29 04:05:40;;;;;;;;;;;;;;;16.72;54.37;101149.50;4843656;28;124468;-76
2023/08/29 04:08:08;;;;;;;;;;;;;;;16.72;54.38;101146.84;4833307;29;119950;-77
2023/08/29 04:10:39;;;;;;;;;;;;;;;16.72;54.37;101144.16;4843539;28;118490;-77
2023/08/29 04:13:06;;;;;;;;;;;;;;;16.72;54.32;101136.13;4830562;29;123942;-77
2023/08/29 04:15:34;;;;;;;;;;;;;;;16.70;54.10;101124.69;4823366;29;123334;-77
2023/08/29 04:18:01;;;;;;;;;;;;;;;16.68;54.19;101124.78;4828590;29;119674;-77
2023/08/29 04:20:29;;;;;;;;;;;;;;;16.66;54.22;101125.84;4815094;29;118611;-77
2023/08/29 04:22:57;;;;;;;;;;;;;;;16.64;54.31;101125.09;4842000;29;124902;-77
2023/08/29 04:25:27;;;;;;;;;;;;;;;16.64;54.43;101131.28;4826549;29;124554;-77
2023/08/29 04:27:54;;;;;;;;;;;;;;;16.64;54.29;101131.28;4845763;29;121833;-77
2023/08/29 04:30:21;;;;;;;;;;;;;;;16.66;54.47;101131.19;4832771;29;120973;-77
2023/08/29 04:32:50;;;;;;;;;;;;;;;16.65;54.26;101129.47;4825483;29;124722;-76
2023/08/29 04:35:17;;;;;;;;;;;;;;;16.66;54.40;101125.84;4831551;29;124018;-76
2023/08/29 04:37:46;;;;;;;;;;;;;;;16.66;54.39;101123.19;4828863;29;120003;-76
2023/08/29 04:40:13;;;;;;;;;;;;;;;16.66;54.36;101117.84;4845012;28;119831;-76
2023/08/29 04:42:41;;;;;;;;;;;;;;;16.65;54.51;101121.44;4826336;29;124203;-77
2023/08/29 04:45:08;;;;;;;;;;;;;;;16.66;54.48;101112.47;4838021;29;124359;-76
2023/08/29 04:47:35;;;;;;;;;;;;;;;16.67;54.34;101119.53;4827315;29;119396;-76
2023/08/29 04:50:03;;;;;;;;;;;;;;;16.66;54.26;101115.16;4833519;29;117551;-76
2023/08/29 04:52:30;;;;;;;;;;;;;;;16.67;54.46;101108.81;4828928;29;124857;-76
2023/08/29 04:54:57;;;;;;;;;;;;;;;16.67;54.31;101108.81;4829992;29;123724;-76
2023/08/29 04:57:25;;;;;;;;;;;;;;;16.70;54.54;101113.97;4831214;29;118607;-76
2023/08/29 04:59:54;;;;;;;;;;;;;;;16.70;54.46;101113.97;4824314;29;117805;-76
2023/08/29 05:02:21;;;;;;;;;;;;;;;16.72;54.51;101117.41;4824591;29;123844;-76
2023/08/29 05:04:48;;;;;;;;;;;;;;;16.73;54.58;101129.84;4843681;28;122531;-76
2023/08/29 05:07:15;;;;;;;;;;;;;;;16.73;54.34;101133.38;4844729;29;119632;-76
2023/08/29 05:09:42;;;;;;;;;;;;;;;16.73;54.36;101135.19;4831710;29;117946;-76
2023/08/29 05:12:11;;;;;;;;;;;;;;;16.73;54.46;101129.84;4831720;29;123690;-77
2023/08/29 05:14:38;;;;;;;;;;;;;;;16.75;54.57;101138.63;4815691;29;123333;-76
2023/08/29 05:17:06;;;;;;;;;;;;;;;16.76;54.67;101140.31;4831163;29;119653;-76
2023/08/29 05:19:33;;;;;;;;;;;;;;;16.75;54.67;101133.28;4829341;29;119183;-76
2023/08/29 05:22:00;;;;;;;;;;;;;;;16.76;54.48;101134.97;4830977;29;126184;-76
2023/08/29 05:24:28;;;;;;;;;;;;;;;16.78;54.44;101143.75;4828885;29;125755;-76
2023/08/29 05:26:55;;;;;;;;;;;;;;;16.79;54.51;101148.16;4831301;29;118870;-76
2023/08/29 05:29:22;;;;;;;;;;;;;;;16.79;54.65;101150.81;4825147;29;119307;-76
2023/08/29 05:31:49;;;;;;;;;;;;;;;16.81;54.52;101159.59;4818423;29;124382;-76
2023/08/29 05:34:16;;;;;;;;;;;;;;;16.83;54.49;101152.38;4824455;29;123625;-76
2023/08/29 05:36:43;;;;;;;;;;;;;;;16.84;54.62;101151.41;4822753;29;119395;-77
2023/08/29 05:39:10;;;;;;;;;;;;;;;16.86;54.70;101151.31;4824048;29;119193;-76
2023/08/29 05:41:36;;;;;;;;;;;;;;;16.89;54.66;101156.44;4827614;29;124301;-77
2023/08/29 05:44:04;;;;;;;;;;;;;;;16.91;54.77;101149.19;4826890;29;124700;-76
2023/08/29 05:46:31;;;;;;;;;;;;;;;16.92;54.76;101149.06;4828388;29;119793;-76
2023/08/29 05:48:59;;;;;;;;;;;;;;;16.96;54.77;101146.22;4831456;29;118876;-77
2023/08/29 05:51:26;;;;;;;;;;;;;;;16.98;54.74;101155.00;4845773;29;124001;-76
2023/08/29 05:53:53;;;;;;;;;;;;;;;17.01;54.63;101149.41;4834197;29;124229;-77
2023/08/29 05:56:20;;;;;;;;;;;;;;;17.03;54.71;101147.53;4826708;29;118700;-76
2023/08/29 05:58:47;;;;;;;;;;;;;;;17.04;54.70;101154.56;4834641;29;118980;-76
2023/08/29 06:01:14;;;;;;;;;;;;;;;17.07;54.64;101149.03;4827843;29;123930;-76
2023/08/29 06:03:42;;;;;;;;;;;;;;;17.08;54.66;101150.72;4826824;29;125658;-76
2023/08/29 06:06:09;;;;;;;;;;;;;;;17.11;54.68;101155.88;4827267;29;120322;-77
2023/08/29 06:08:36;;;;;;;;;;;;;;;17.12;54.58;101153.09;4845077;29;119016;-76
2023/08/29 06:11:03;;;;;;;;;;;;;;;17.15;54.77;101152.03;4821750;29;124235;-76
2023/08/29 06:13:30;;;;;;;;;;;;;;;17.17;54.77;101154.59;4829097;29;124064;-76
2023/08/29 06:15:57;;;;;;;;;;;;;;;17.19;54.72;101153.53;4833331;29;120168;-76
2023/08/29 06:18:24;;;;;;;;;;;;;;;17.22;54.70;101157.84;4824521;29;118770;-76
2023/08/29 06:20:51;;;;;;;;;;;;;;;17.24;54.80;101155.91;4830051;29;124368;-76
2023/08/29 06:23:18;;;;;;;;;;;;;;;17.26;54.78;101149.47;4828155;29;124982;-76
2023/08/29 06:25:45;;;;;;;;;;;;;;;17.30;54.70;101155.47;4827426;29;118373;-76
2023/08/29 06:28:12;;;;;;;;;;;;;;;17.35;54.89;101155.16;4821037;29;118634;-76
2023/08/29 06:30:39;;;;;;;;;;;;;;;17.37;54.93;101155.94;4832273;29;124190;-76
2023/08/29 06:33:06;;;;;;;;;;;;;;;17.41;54.92;101157.44;4829093;29;124133;-76
2023/08/29 06:35:34;;;;;;;;;;;;;;;17.44;54.94;101147.38;4827859;29;118621;-77
2023/08/29 06:38:01;;;;;;;;;;;;;;;17.51;54.94;101142.41;4824369;29;118228;-76
2023/08/29 06:40:28;;;;;;;;;;;;;;;17.58;54.99;101146.41;4833866;29;124116;-76
2023/08/29 06:42:55;;;;;;;;;;;;;;;17.65;54.94;101145.00;4830578;29;123777;-76
2023/08/29 06:45:23;;;;;;;;;;;;;;;17.73;54.96;101152.50;4831476;29;119642;-77
2023/08/29 06:47:52;;;;;;;;;;;;;;;17.81;55.03;101143.91;4835403;29;119220;-76
2023/08/29 06:50:19;;;;;;;;;;;;;;;17.90;55.02;101146.00;4817975;29;123376;-76
2023/08/29 06:52:46;;;;;;;;;;;;;;;18.00;54.97;101144.34;4830361;29;124195;-76
2023/08/29 06:55:13;;;;;;;;;;;;;;;18.09;55.00;101142.84;4833048;29;120148;-76
2023/08/29 06:57:40;;;;;;;;;;;;;;;18.18;55.13;101147.53;4826262;29;119705;-76
2023/08/29 07:00:10;;;;;;;;;;;;;;;18.26;55.11;101147.00;4833253;29;124330;-76
2023/08/29 07:02:37;;;;;;;;;;;;;;;18.37;55.29;101141.69;4833978;29;125693;-76
2023/08/29 07:05:04;;;;;;;;;;;;;;;18.49;55.45;101138.09;4826477;29;118650;-77
2023/08/29 07:07:31;;;;;;;;;;;;;;;18.64;55.44;101137.94;4838665;29;118846;-76
2023/08/29 07:09:58;;;;;;;;;;;;;;;18.78;55.54;101134.22;4826733;29;124190;-76
2023/08/29 07:12:25;;;;;;;;;;;;;;;18.92;55.46;101126.03;4817444;29;123263;-76
2023/08/29 07:14:52;;;;;;;;;;;;;;;19.07;55.37;101132.06;4845453;29;119436;-76
2023/08/29 07:17:19;;;;;;;;;;;;;;;19.18;55.44;101124.03;4825213;29;118947;-76
2023/08/29 07:19:46;;;;;;;;;;;;;;;19.31;55.36;101125.75;4831860;29;124502;-76
2023/08/29 07:22:13;;;;;;;;;;;;;;;19.43;55.45;101135.56;4833306;29;124686;-77
2023/08/29 07:24:53;;;;;;;;;;;;;;;19.56;55.30;101125.56;4818361;29;118991;-76
2023/08/29 07:27:20;;;;;;;;;;;;;;;19.69;55.34;101130.00;4832308;29;118808;-76
2023/08/29 07:29:47;;;;;;;;;;;;;;;19.81;55.39;101134.41;4833688;29;125116;-76
2023/08/29 07:32:14;;;;;;;;;;;;;;;19.93;55.34;101135.25;4832096;29;124366;-76
2023/08/29 07:34:41;;;;;;;;;;;;;;;20.03;55.32;101134.41;4832745;29;119353;-76
2023/08/29 07:37:08;;;;;;;;;;;;;;;20.16;55.32;101138.81;4820755;29;119566;-76
2023/08/29 07:39:35;;;;;;;;;;;;;;;20.30;55.48;101141.22;4832071;29;123044;-76
2023/08/29 07:42:02;;;;;;;;;;;;;;;20.42;55.32;101140.22;4822009;29;124502;-76
2023/08/29 07:44:31;;;;;;;;;;;;;;;20.55;55.34;101137.38;4830513;29;120205;-76
2023/08/29 07:46:58;;;;;;;;;;;;;;;20.67;55.38;101138.22;4828292;29;119721;-76
2023/08/29 07:49:41;;;;;;;;;;;;;;;20.78;55.20;101146.25;4818956;29;125122;-77
2023/08/29 07:52:08;;;;;;;;;;;;;;;20.88;55.21;101150.88;4833472;29;124129;-77
2023/08/29 07:54:35;;;;;;;;;;;;;;;20.98;55.21;101151.81;4827303;29;119852;-77
2023/08/29 07:57:02;;;;;;;;;;;;;;;21.11;55.12;101147.09;4832956;29;118751;-77
2023/08/29 07:59:29;;;;;;;;;;;;;;;21.19;55.11;101150.00;4831497;29;122974;-77
2023/08/29 08:01:56;;;;;;;;;;;;;;;21.30;54.94;101156.28;4834243;29;123693;-77
2023/08/29 08:04:23;;;;;;;;;;;;;;;21.39;54.92;101150.13;4832409;29;120309;-77
2023/08/29 08:06:50;;;;;;;;;;;;;;;21.47;54.84;101147.63;4830010;29;118773;-77
2023/08/29 08:09:17;;;;;;;;;;;;;;;21.57;54.77;101147.72;4830281;29;124701;-77
2023/08/29 08:11:44;;;;;;;;;;;;;;;21.67;55.04;101158.56;4831507;29;124466;-77
2023/08/29 08:14:12;;;;;;;;;;;;;;;21.75;54.80;101162.25;4831396;29;119128;-77
2023/08/29 08:16:39;;;;;;;;;;;;;;;21.84;54.88;101160.63;4829672;29;118024;-77
2023/08/29 08:19:07;;;;;;;;;;;;;;;21.92;54.73;101162.63;4832433;29;124243;-76
2023/08/29 08:21:34;;;;;;;;;;;;;;;22.00;54.72;101164.66;4832813;29;124929;-76
2023/08/29 08:24:01;;;;;;;;;;;;;;;22.08;54.70;101151.38;4829032;29;119174;-76
2023/08/29 08:26:28;;;;;;;;;;;;;;;22.14;54.62;101156.19;4832883;29;119290;-76
2023/08/29 08:28:55;;;;;;;;;;;;;;;22.19;54.62;101159.34;4827753;29;124039;-76
2023/08/29 08:31:22;;;;;;;;;;;;;;;22.23;54.59;101155.38;4823993;29;124625;-77
2023/08/29 08:33:49;;;;;;;;;;;;;;;22.30;54.65;101161.09;4826332;29;120403;-76
2023/08/29 08:36:16;;;;;;;;;;;;;;;22.38;54.52;101163.09;4826893;29;119129;-77
2023/08/29 08:38:43;;;;;;;;;;;;;;;22.43;54.46;101160.84;4829073;29;124969;-76
2023/08/29 08:41:11;;;;;;;;;;;;;;;22.49;54.56;101149.50;4827815;29;123932;-77
2023/08/29 08:43:38;;;;;;;;;;;;;;;22.51;54.35;101158.34;4831128;29;119508;-77
2023/08/29 08:46:06;;;;;;;;;;;;;;;22.56;54.34;101145.25;4827364;29;118330;-77
2023/08/29 08:48:33;;;;;;;;;;;;;;;22.61;54.42;101153.78;4828434;29;123913;-76
2023/08/29 08:51:01;;;;;;;;;;;;;;;22.66;54.41;101148.84;4823135;29;123204;-77
2023/08/29 08:53:28;;;;;;;;;;;;;;;22.71;54.46;101149.25;4826064;29;119450;-76
2023/08/29 08:55:56;;;;;;;;;;;;;;;22.76;54.34;101145.28;4832147;29;119479;-77
2023/08/29 08:58:22;;;;;;;;;;;;;;;22.79;54.11;101145.00;4827875;29;124756;-77
2023/08/29 09:00:49;;;;;;;;;;;;;;;22.80;53.93;101141.31;4825019;29;123656;-77
2023/08/29 09:03:16;;;;;;;;;;;;;;;22.81;54.10;101149.28;4829494;29;120278;-77
2023/08/29 09:05:43;;;;;;;;;;;;;;;22.82;54.15;101139.31;4823420;29;118902;-77
2023/08/29 09:08:10;;;;;;;;;;;;;;;22.83;54.07;101144.59;4841510;29;124061;-77
2023/08/29 09:10:39;;;;;;;;;;;;;;;22.82;54.03;101144.72;4825720;29;123781;-77
2023/08/29 09:13:05;;;;;;;;;;;;;;;22.83;54.03;101141.00;4831994;29;118967;-77
2023/08/29 09:15:34;;;;;;;;;;;;;;;22.83;53.98;101146.41;4846034;29;118567;-77
2023/08/29 09:18:01;;;;;;;;;;;;;;;22.84;54.04;101142.72;4821088;29;124873;-77
2023/08/29 09:20:29;;;;;;;;;;;;;;;22.88;54.30;101144.97;4812893;29;122306;-77
2023/08/29 09:22:56;;;;;;;;;;;;;;;22.96;54.07;101146.97;4823966;29;120576;-76
2023/08/29 09:25:25;;;;;;;;;;;;;;;23.03;54.28;101148.16;4831325;29;120163;-76
2023/08/29 09:27:52;;;;;;;;;;;;;;;23.09;53.98;101147.59;4826137;29;126496;-77
2023/08/29 09:30:19;;;;;;;;;;;;;;;23.12;54.00;101150.00;4829027;29;125038;-77
2023/08/29 09:32:47;;;;;;;;;;;;;;;23.19;54.01;101146.69;4820391;29;119646;-77
2023/08/29 09:35:16;;;;;;;;;;;;;;;23.24;53.98;101144.44;4829050;29;119358;-77
2023/08/29 09:37:51;;;;;;;;;;;;;;;23.31;54.15;101145.56;4829406;29;124464;-76
2023/08/29 09:40:18;;;;;;;;;;;;;;;23.37;53.82;101144.13;4832912;29;122673;-77
2023/08/29 09:43:05;;;;;;;;;;;;;;;23.39;53.96;101136.72;4822552;29;119833;-77
2023/08/29 09:45:33;;;;;;;;;;;;;;;23.42;53.95;101137.28;4833107;29;119101;-76
2023/08/29 09:48:06;;;;;;;;;;;;;;;23.47;54.00;101140.41;4828105;29;123162;-77
2023/08/29 09:50:34;;;;;;;;;;;;;;;23.54;53.91;101139.81;4841398;29;123457;-77
2023/08/29 09:53:02;;;;;;;;;;;;;;;23.60;53.99;101133.81;4831332;29;118597;-76
2023/08/29 09:55:36;;;;;;;;;;;;;;;23.69;53.87;101138.34;4831201;29;118265;-76
2023/08/29 09:58:04;;;;;;;;;;;;;;;23.80;53.92;101140.91;4832301;29;124104;-77
2023/08/29 10:00:33;;;;;;;;;;;;;;;23.90;54.14;101133.63;4833712;29;124171;-76
2023/08/29 10:03:03;;;;;;;;;;;;;;;24.01;53.73;101131.72;4826553;29;119942;-77
2023/08/29 10:05:33;;;;;;;;;;;;;;;24.07;53.88;101136.50;4834151;29;118381;-76
2023/08/29 10:08:05;;;;;;;;;;;;;;;24.08;53.51;101132.81;4831534;29;123921;-77
2023/08/29 10:10:34;;;;;;;;;;;;;;;24.06;53.36;101135.66;4834004;29;124076;-77
2023/08/29 10:13:01;;;;;;;;;;;;;;;24.05;53.37;101133.09;4829608;29;120547;-76
2023/08/29 10:15:29;;;;;;;;;;;;;;;24.03;53.49;101129.69;4822460;29;119542;-76
2023/08/29 10:17:56;;;;;;;;;;;;;;;24.02;53.27;101136.13;4823678;29;124477;-77
2023/08/29 10:20:24;;;;;;;;;;;;;;;24.01;53.46;101134.41;4833214;29;123351;-77
2023/08/29 10:22:51;;;;;;;;;;;;;;;24.01;53.40;101131.72;4833369;29;118355;-77
2023/08/29 10:25:20;;;;;;;;;;;;;;;23.99;53.12;101133.72;4834278;29;118618;-77
2023/08/29 10:27:48;;;;;;;;;;;;;;;23.99;53.41;101133.72;4817526;29;123244;-77
2023/08/29 10:30:15;;;;;;;;;;;;;;;24.01;53.36;101127.13;4848330;29;124531;-77
2023/08/29 10:32:43;;;;;;;;;;;;;;;24.02;53.25;101128.00;4833133;29;119690;-76
2023/08/29 10:35:18;;;;;;;;;;;;;;;24.04;53.08;101126.00;4834387;29;118723;-77
2023/08/29 10:37:52;;;;;;;;;;;;;;;24.02;53.22;101123.44;4832221;29;123597;-77
2023/08/29 10:40:19;;;;;;;;;;;;;;;24.01;53.03;101131.72;4848227;29;124993;-77
2023/08/29 10:42:48;;;;;;;;;;;;;;;24.00;52.96;101130.03;4824733;29;120802;-77
2023/08/29 10:45:16;;;;;;;;;;;;;;;23.96;52.94;101123.19;4832946;29;117866;-77
2023/08/29 10:47:46;;;;;;;;;;;;;;;23.95;53.11;101121.50;4831386;29;124579;-76
2023/08/29 10:50:19;;;;;;;;;;;;;;;23.92;53.02;101122.63;4824486;29;123536;-77
2023/08/29 10:52:46;;;;;;;;;;;;;;;23.92;53.03;101117.22;4828896;29;121002;-77
2023/08/29 10:55:24;;;;;;;;;;;;;;;23.90;52.91;101120.09;4827724;29;118491;-77
2023/08/29 10:57:58;;;;;;;;;;;;;;;23.90;53.08;101122.78;4844455;29;125014;-76
2023/08/29 11:00:32;;;;;;;;;;;;;;;23.92;53.28;101111.81;4821712;29;124092;-77
2023/08/29 11:03:00;;;;;;;;;;;;;;;23.96;53.17;101118.63;4828587;29;120277;-77
2023/08/29 11:05:27;;;;;;;;;;;;;;;23.98;52.86;101110.34;4829053;29;120058;-77
2023/08/29 11:08:13;;;;;;;;;;;;;;;24.00;53.11;101108.38;4831854;29;124111;-77
2023/08/29 11:10:40;;;;;;;;;;;;;;;24.02;52.94;101100.97;4833842;29;123884;-76
2023/08/29 11:13:12;;;;;;;;;;;;;;;24.06;52.96;101102.34;4830374;29;119578;-77
2023/08/29 11:15:51;;;;;;;;;;;;;;;24.10;52.96;101101.03;4829302;29;118740;-77
2023/08/29 11:18:24;;;;;;;;;;;;;;;24.15;53.17;101096.03;4830942;29;124670;-77
2023/08/29 11:20:51;;;;;;;;;;;;;;;24.20;53.16;101091.00;4819363;29;123837;-76
2023/08/29 11:23:19;;;;;;;;;;;;;;;24.24;53.17;101092.41;4826601;29;120149;-77
2023/08/29 11:25:52;;;;;;;;;;;;;;;24.31;52.97;101083.69;4840356;29;118598;-77
2023/08/29 11:28:19;;;;;;;;;;;;;;;24.38;52.90;101082.91;4833118;29;124210;-77
2023/08/29 11:30:46;;;;;;;;;;;;;;;24.47;53.10;101084.69;4829628;29;123387;-77
2023/08/29 11:33:14;;;;;;;;;;;;;;;24.52;53.06;101081.53;4822538;29;120319;-77
2023/08/29 11:35:42;;;;;;;;;;;;;;;24.56;52.51;101082.94;4830983;29;119306;-77
2023/08/29 11:38:09;;;;;;;;;;;;;;;24.60;52.77;101078.06;4829670;29;124369;-77
2023/08/29 11:40:36;;;;;;;;;;;;;;;24.64;52.65;101074.91;4832974;29;123920;-77
2023/08/29 11:43:24;;;;;;;;;;;;;;;24.71;52.84;101068.84;4847666;29;118608;-77
2023/08/29 11:46:11;;;;;;;;;;;;;;;24.75;52.68;101075.66;4825431;29;119863;-77
2023/08/29 11:48:38;;;;;;;;;;;;;;;24.79;52.72;101079.75;4831568;29;125136;-76
2023/08/29 11:51:06;;;;;;;;;;;;;;;24.87;52.82;101074.41;4811557;29;124714;-77
2023/08/29 11:53:36;;;;;;;;;;;;;;;24.96;52.68;101078.91;4829750;29;120321;-77
2023/08/29 11:56:04;;;;;;;;;;;;;;;25.04;52.69;101075.41;4828072;29;119927;-76
2023/08/29 11:58:31;;;;;;;;;;;;;;;25.10;52.35;101073.91;4828699;29;123193;-77
2023/08/29 12:01:02;;;;;;;;;;;;;;;25.13;52.33;101073.56;4829422;29;125004;-77
2023/08/29 12:03:29;;;;;;;;;;;;;;;25.22;52.36;101072.63;4832467;29;119632;-77
2023/08/29 12:05:59;;;;;;;;;;;;;;;25.30;52.53;101070.00;4825561;29;118727;-77
2023/08/29 12:08:34;;;;;;;;;;;;;;;25.39;52.41;101069.06;4845661;28;123238;-76
2023/08/29 12:11:01;;;;;;;;;;;;;;;25.48;52.55;101060.97;4832254;29;124627;-76
2023/08/29 12:13:28;;;;;;;;;;;;;;;25.60;52.43;101059.69;4829873;29;119626;-77
2023/08/29 12:15:55;;;;;;;;;;;;;;;25.67;52.50;101066.13;4821484;29;118797;-76
2023/08/29 12:18:25;;;;;;;;;;;;;;;25.79;52.58;101062.13;4825112;29;124294;-77
2023/08/29 12:21:08;;;;;;;;;;;;;;;25.90;52.09;101060.13;4827280;29;123969;-77
2023/08/29 12:23:35;;;;;;;;;;;;;;;25.97;52.25;101063.91;4826548;29;119429;-77
2023/08/29 12:26:01;;;;;;;;;;;;;;;26.05;51.84;101058.53;4821316;29;119399;-77
2023/08/29 12:28:28;;;;;;;;;;;;;;;26.11;52.06;101057.84;4826730;29;124449;-77
2023/08/29 12:30:56;;;;;;;;;;;;;;;26.18;52.08;101058.91;4830034;29;124530;-77
2023/08/29 12:33:23;;;;;;;;;;;;;;;26.27;51.80;101050.75;4831984;29;119232;-77